Time;durP1;ratioP1;P1;durP2;ratioP2;P2;SDS_P1;SDS_P2;PMS_P1;PMS_P2;Temp;Humidity;BMP_temperature;BMP_pressure;BME280_temperature;BME280_humidity;BME280_pressure;Samples;Min_cycle;Max_cycle;Signal;HPM_P1;HPM_P2
2022/03/21 00:00:52;;;;;;;41.03;36.07;;;8.30;1.00;;;;;;6186883;23;20764;-83
2022/03/21 00:03:21;;;;;;;40.80;36.50;;;8.30;1.00;;;;;;6187476;23;20169;-83
2022/03/21 00:05:47;;;;;;;41.20;36.53;;;8.40;1.00;;;;;;6186968;23;20231;-83
2022/03/21 00:08:16;;;;;;;42.27;35.53;;;8.40;1.00;;;;;;6186889;23;20217;-81
2022/03/21 00:10:42;;;;;;;40.87;36.57;;;8.30;1.00;;;;;;6187107;23;20173;-78
2022/03/21 00:13:08;;;;;;;39.70;35.17;;;8.40;1.00;;;;;;6186518;23;20142;-83
2022/03/21 00:15:35;;;;;;;40.63;35.60;;;8.40;1.00;;;;;;6186712;23;20192;-83
2022/03/21 00:18:03;;;;;;;40.60;35.50;;;8.40;99.90;;;;;;6186174;23;20197;-79
2022/03/21 00:20:30;;;;;;;42.60;35.97;;;8.50;99.90;;;;;;6186635;23;20197;-83
2022/03/21 00:22:56;;;;;;;41.93;36.03;;;8.60;99.90;;;;;;6186371;23;20138;-77
2022/03/21 00:25:22;;;;;;;40.97;35.73;;;8.50;99.90;;;;;;6159900;23;20164;-83
2022/03/21 00:27:48;;;;;;;41.37;36.20;;;8.50;99.90;;;;;;6185651;23;20138;-83
2022/03/21 00:30:14;;;;;;;40.40;34.23;;;8.50;99.90;;;;;;6186504;23;20177;-81
2022/03/21 00:32:41;;;;;;;40.03;35.57;;;8.50;99.90;;;;;;6186687;23;20517;-82
2022/03/21 00:35:08;;;;;;;39.43;34.80;;;8.50;56.00;;;;;;6186623;23;20571;-83
2022/03/21 00:37:35;;;;;;;38.30;34.10;;;8.40;99.90;;;;;;6186312;23;20142;-83
2022/03/21 00:40:02;;;;;;;40.27;35.87;;;8.30;99.90;;;;;;6186474;23;20138;-82
2022/03/21 00:42:28;;;;;;;38.43;34.07;;;8.10;1.00;;;;;;6160111;23;20153;-83
2022/03/21 00:44:56;;;;;;;43.00;34.93;;;8.10;1.00;;;;;;6186658;23;20149;-83
2022/03/21 00:47:23;;;;;;;38.90;34.67;;;8.20;1.00;;;;;;6186482;23;20134;-80
2022/03/21 00:49:52;;;;;;;41.20;35.53;;;8.30;1.00;;;;;;6186769;23;20130;-83
2022/03/21 00:52:18;;;;;;;39.13;33.50;;;8.20;1.00;;;;;;6186836;23;20134;-78
2022/03/21 00:54:44;;;;;;;40.00;34.33;;;8.30;1.00;;;;;;6189223;23;20191;-82
2022/03/21 00:57:09;;;;;;;39.07;33.30;;;8.20;99.90;;;;;;6189850;23;20217;-81
2022/03/21 00:59:35;;;;;;;37.27;32.67;;;8.30;99.90;;;;;;6199678;23;20170;-82
2022/03/21 01:02:01;;;;;;;41.37;33.17;;;8.50;1.80;;;;;;6206061;23;20134;-82
2022/03/21 01:04:27;;;;;;;36.77;32.73;;;8.50;1.00;;;;;;6205000;23;20197;-80
2022/03/21 01:06:53;;;;;;;35.67;31.87;;;8.50;1.00;;;;;;6205178;23;20142;-82
2022/03/21 01:09:19;;;;;;;36.43;31.73;;;8.40;1.00;;;;;;6201385;22;20208;-78
2022/03/21 01:11:46;;;;;;;37.90;32.67;;;8.40;1.00;;;;;;6194508;23;20153;-82
2022/03/21 01:14:13;;;;;;;39.33;32.83;;;8.40;1.00;;;;;;6197688;23;20153;-77
2022/03/21 01:16:39;;;;;;;36.13;32.23;;;8.40;1.00;;;;;;6204343;23;20134;-77
2022/03/21 01:19:05;;;;;;;38.37;32.33;;;8.50;1.00;;;;;;6207282;22;20189;-80
2022/03/21 01:21:33;;;;;;;39.53;32.40;;;8.50;1.00;;;;;;6210807;23;20165;-81
2022/03/21 01:24:01;;;;;;;38.00;32.10;;;8.50;1.00;;;;;;6204067;23;20145;-82
2022/03/21 01:26:27;;;;;;;35.10;30.50;;;8.50;1.00;;;;;;6193446;23;20136;-80
2022/03/21 01:28:53;;;;;;;34.80;31.00;;;8.50;1.00;;;;;;6194390;23;20137;-81
2022/03/21 01:31:19;;;;;;;33.77;29.93;;;8.50;1.00;;;;;;6197012;23;20134;-81
2022/03/21 01:33:45;;;;;;;34.43;29.67;;;8.60;1.00;;;;;;6194254;23;20146;-82
2022/03/21 01:36:12;;;;;;;34.93;27.83;;;8.80;1.00;;;;;;6186610;23;20592;-77
2022/03/21 01:38:38;;;;;;;32.43;27.43;;;8.60;1.00;;;;;;6195555;23;20197;-83
2022/03/21 01:41:03;;;;;;;32.60;28.57;;;8.50;99.90;;;;;;6164945;23;20252;-81
2022/03/21 01:43:29;;;;;;;35.67;30.53;;;8.50;99.90;;;;;;6189972;23;20939;-81
2022/03/21 01:45:55;;;;;;;36.67;31.70;;;8.60;99.90;;;;;;6196461;23;20134;-81
2022/03/21 01:48:20;;;;;;;36.77;31.43;;;8.70;99.90;;;;;;6165555;23;20157;-81
2022/03/21 01:50:46;;;;;;;35.03;29.80;;;8.70;99.90;;;;;;6186935;23;20138;-82
2022/03/21 01:56:02;;;;;;;35.50;30.07;;;8.70;99.90;;;;;;6185661;23;20216;-78
2022/03/21 01:58:30;;;;;;;35.70;29.67;;;8.70;99.90;;;;;;6185569;23;20521;-82
2022/03/21 02:01:01;;;;;;;33.87;29.63;;;8.70;99.90;;;;;;6185864;23;20135;-82
2022/03/21 02:03:27;;;;;;;36.70;31.07;;;8.70;99.90;;;;;;6185772;23;20192;-83
2022/03/21 02:05:52;;;;;;;37.07;31.33;;;8.50;99.90;;;;;;6188327;23;20166;-82
2022/03/21 02:08:18;;;;;;;33.77;27.47;;;8.40;1.00;;;;;;6200998;23;20130;-81
2022/03/21 02:10:46;;;;;;;33.57;26.70;;;8.30;1.00;;;;;;6190504;23;20161;-83
2022/03/21 02:13:13;;;;;;;33.50;29.17;;;8.20;1.00;;;;;;6185763;23;20150;-83
2022/03/21 02:15:39;;;;;;;36.73;30.63;;;8.20;1.00;;;;;;6185481;23;20162;-83
2022/03/21 02:18:06;;;;;;;30.97;26.30;;;8.10;1.00;;;;;;6185657;23;20168;-83
2022/03/21 02:20:35;;;;;;;33.53;26.83;;;8.10;1.00;;;;;;6184995;23;20146;-81
2022/03/21 02:23:11;;;;;;;32.17;26.10;;;8.20;1.00;;;;;;6185577;23;20134;-82
2022/03/21 02:25:43;;;;;;;30.07;25.07;;;8.30;1.00;;;;;;6185360;23;20212;-82
2022/03/21 02:28:14;;;;;;;32.03;28.63;;;8.30;1.00;;;;;;6185611;23;20585;-81
2022/03/21 02:30:42;;;;;;;37.17;29.97;;;8.30;1.00;;;;;;6185573;23;20196;-80
2022/03/21 02:33:09;;;;;;;33.43;28.00;;;8.30;1.00;;;;;;6185536;23;20134;-81
2022/03/21 02:35:36;;;;;;;33.50;28.03;;;8.50;1.00;;;;;;6185147;23;20145;-78
2022/03/21 02:38:02;;;;;;;34.37;28.63;;;8.40;1.00;;;;;;6185610;23;20238;-81
2022/03/21 02:40:28;;;;;;;36.87;30.17;;;8.50;1.00;;;;;;6185721;23;20134;-81
2022/03/21 02:42:54;;;;;;;33.03;26.33;;;8.50;1.00;;;;;;6186099;23;20173;-82
2022/03/21 02:45:20;;;;;;;38.57;30.67;;;8.40;99.90;;;;;;6185481;23;20513;-82
2022/03/21 02:47:46;;;;;;;34.23;28.53;;;8.20;1.00;;;;;;6185835;23;20138;-81
2022/03/21 02:50:33;;;;;;;34.00;26.67;;;8.00;1.00;;;;;;6185202;23;20442;-81
2022/03/21 02:53:01;;;;;;;29.43;24.83;;;8.00;1.00;;;;;;6185652;23;20272;-82
2022/03/21 02:55:27;;;;;;;33.23;27.53;;;8.10;1.00;;;;;;6187225;23;20142;-83
2022/03/21 02:57:53;;;;;;;31.93;26.77;;;8.10;1.00;;;;;;6187372;23;20216;-82
2022/03/21 03:00:19;;;;;;;34.37;27.63;;;8.10;1.00;;;;;;6187385;23;20145;-83
2022/03/21 03:02:44;;;;;;;35.60;29.43;;;8.10;1.00;;;;;;6187796;23;20138;-81
2022/03/21 03:05:10;;;;;;;32.73;28.80;;;8.10;1.00;;;;;;6187736;23;20235;-82
2022/03/21 03:07:36;;;;;;;32.20;28.57;;;8.10;1.00;;;;;;6189184;23;20134;-81
2022/03/21 03:10:02;;;;;;;38.33;29.57;;;8.20;1.00;;;;;;6195292;23;20165;-81
2022/03/21 03:12:33;;;;;;;33.50;28.07;;;8.20;1.00;;;;;;6189534;23;20196;-83
2022/03/21 03:15:02;;;;;;;33.70;27.77;;;8.30;1.00;;;;;;6188025;23;20150;-82
2022/03/21 03:17:28;;;;;;;32.17;28.17;;;8.30;1.00;;;;;;6187582;23;20169;-82
2022/03/21 03:19:54;;;;;;;32.10;26.60;;;8.20;1.00;;;;;;6188887;23;20185;-81
2022/03/21 03:22:21;;;;;;;39.27;30.40;;;8.20;1.00;;;;;;6188698;23;20134;-82
2022/03/21 03:24:48;;;;;;;36.90;29.70;;;8.20;1.00;;;;;;6206807;22;20189;-77
2022/03/21 03:27:13;;;;;;;36.83;30.23;;;8.10;1.00;;;;;;6204627;23;20134;-75
2022/03/21 03:29:42;;;;;;;39.37;30.23;;;8.00;1.00;;;;;;6172879;23;20145;-82
2022/03/21 03:32:09;;;;;;;36.27;29.07;;;8.00;29.20;;;;;;6197947;23;20138;-82
2022/03/21 03:34:35;;;;;;;33.73;28.07;;;7.90;38.90;;;;;;6188257;23;20565;-76
2022/03/21 03:37:02;;;;;;;32.83;28.13;;;7.90;99.90;;;;;;6188665;23;20149;-83
2022/03/21 03:39:29;;;;;;;37.07;27.60;;;7.90;99.90;;;;;;6189468;23;20681;-82
2022/03/21 03:41:55;;;;;;;38.47;29.10;;;7.80;99.90;;;;;;6188274;23;20236;-83
2022/03/21 03:44:22;;;;;;;34.47;29.63;;;7.80;99.90;;;;;;6187455;23;20637;-83
2022/03/21 03:46:48;;;;;;;33.73;27.07;;;7.80;99.90;;;;;;6188778;23;20216;-81
2022/03/21 03:49:14;;;;;;;37.87;28.60;;;7.80;99.90;;;;;;6162366;23;20153;-80
2022/03/21 03:51:40;;;;;;;36.57;29.57;;;7.80;99.90;;;;;;6186056;23;20134;-81
2022/03/21 03:54:05;;;;;;;37.40;28.10;;;7.80;1.00;;;;;;6187330;23;20145;-82
2022/03/21 03:56:31;;;;;;;34.70;29.30;;;7.80;99.90;;;;;;6186866;23;20217;-78
2022/03/21 03:58:57;;;;;;;33.60;28.40;;;8.00;99.90;;;;;;6159935;23;20217;-81
2022/03/21 04:01:22;;;;;;;37.53;29.47;;;7.70;1.00;;;;;;6186960;23;20142;-82
2022/03/21 04:03:48;;;;;;;31.40;26.57;;;7.90;1.00;;;;;;6186458;23;20474;-81
2022/03/21 04:06:18;;;;;;;35.80;28.17;;;7.80;1.00;;;;;;6186721;23;20441;-80
2022/03/21 04:08:45;;;;;;;28.70;23.73;;;7.70;1.00;;;;;;6186447;23;20142;-82
2022/03/21 04:11:11;;;;;;;30.57;26.20;;;7.60;99.90;;;;;;6186541;23;20154;-80
2022/03/21 04:13:37;;;;;;;30.97;24.90;;;7.40;99.90;;;;;;6186896;23;20228;-81
2022/03/21 04:16:03;;;;;;;33.13;26.87;;;7.40;1.00;;;;;;6186638;23;20138;-83
2022/03/21 04:18:30;;;;;;;33.67;26.53;;;7.20;1.00;;;;;;6160512;23;20243;-82
2022/03/21 04:20:56;;;;;;;35.37;27.00;;;7.20;99.90;;;;;;6186121;23;20141;-81
2022/03/21 04:23:22;;;;;;;35.50;27.83;;;7.10;99.90;;;;;;6186777;23;20142;-80
2022/03/21 04:25:48;;;;;;;34.70;27.83;;;7.10;99.90;;;;;;6196499;23;20134;-75
2022/03/21 04:28:14;;;;;;;35.27;27.47;;;7.00;1.00;;;;;;6203809;23;20138;-80
2022/03/21 04:30:41;;;;;;;33.40;27.87;;;6.80;99.90;;;;;;6205143;23;20141;-81
2022/03/21 04:33:10;;;;;;;34.57;28.27;;;6.80;1.00;;;;;;6202948;23;20173;-78
2022/03/21 04:35:37;;;;;;;34.80;27.30;;;6.80;1.00;;;;;;6193356;23;20229;-80
2022/03/21 04:38:03;;;;;;;32.30;27.37;;;7.00;99.90;;;;;;6190808;23;20172;-80
2022/03/21 04:40:34;;;;;;;35.20;28.67;;;6.80;47.80;;;;;;6186840;23;20184;-77
2022/03/21 04:43:00;;;;;;;35.30;27.93;;;7.00;1.00;;;;;;6186598;23;20142;-76
2022/03/21 04:45:25;;;;;;;38.43;29.30;;;6.90;1.00;;;;;;6186801;23;20225;-82
2022/03/21 04:47:51;;;;;;;37.00;29.83;;;6.80;1.00;;;;;;6186814;23;20145;-81
2022/03/21 04:50:16;;;;;;;35.97;28.67;;;7.00;39.20;;;;;;6186142;23;20141;-82
2022/03/21 04:52:42;;;;;;;36.93;30.13;;;6.80;99.90;;;;;;6186537;23;20150;-79
2022/03/21 04:55:08;;;;;;;41.67;30.90;;;6.90;1.00;;;;;;6186301;23;20185;-77
2022/03/21 04:57:35;;;;;;;34.63;29.20;;;6.90;1.00;;;;;;6189083;23;20579;-81
2022/03/21 05:00:05;;;;;;;36.43;29.93;;;6.80;1.00;;;;;;6192936;23;20169;-76
2022/03/21 05:02:31;;;;;;;38.97;29.23;;;6.80;99.90;;;;;;6161166;23;20154;-78
2022/03/21 05:04:56;;;;;;;34.30;27.93;;;6.70;99.90;;;;;;6134641;23;20265;-82
2022/03/21 05:07:25;;;;;;;41.60;30.20;;;6.60;99.90;;;;;;6186175;23;20134;-77
2022/03/21 05:09:51;;;;;;;37.53;29.90;;;6.60;1.00;;;;;;6186083;23;20170;-81
2022/03/21 05:12:17;;;;;;;36.90;28.83;;;6.60;99.90;;;;;;6186823;23;20170;-81
2022/03/21 05:14:42;;;;;;;35.37;27.97;;;6.50;1.00;;;;;;6196167;23;20506;-75
2022/03/21 05:17:10;;;;;;;36.27;27.67;;;6.40;99.90;;;;;;6201855;23;20146;-80
2022/03/21 05:19:37;;;;;;;40.10;28.93;;;6.20;1.00;;;;;;6187992;23;20170;-81
2022/03/21 05:22:07;;;;;;;38.50;27.73;;;6.20;99.90;;;;;;6187075;23;20158;-76
2022/03/21 05:35:52;;;;;;;42.07;28.40;;;5.90;1.00;;;;;;6200385;23;20152;-78
2022/03/21 05:35:57;;;;;;;43.03;30.83;;;5.90;1.00;;;;;;6188653;23;20141;-83
2022/03/21 05:38:28;;;;;;;41.53;30.40;;;5.90;1.00;;;;;;6186114;23;20614;-77
2022/03/21 05:41:01;;;;;;;43.83;29.80;;;6.00;1.00;;;;;;6185713;23;20134;-81
2022/03/21 05:43:33;;;;;;;49.30;31.40;;;5.90;1.00;;;;;;6185770;23;20268;-76
2022/03/21 05:46:01;;;;;;;46.93;30.37;;;5.90;1.00;;;;;;6186014;23;20460;-81
2022/03/21 05:51:12;;;;;;;42.97;29.00;;;5.90;1.00;;;;;;6185708;23;20164;-82
2022/03/21 05:53:38;;;;;;;41.07;27.57;;;5.70;36.20;;;;;;6159953;23;20200;-77
2022/03/21 05:56:04;;;;;;;39.20;28.57;;;5.50;99.90;;;;;;6185881;23;20173;-82
2022/03/21 05:58:30;;;;;;;44.37;29.80;;;5.40;99.90;;;;;;6159671;23;20285;-78
2022/03/21 06:00:56;;;;;;;38.67;29.40;;;5.50;99.90;;;;;;6185721;23;20141;-81
2022/03/21 06:03:24;;;;;;;39.37;27.90;;;5.40;99.90;;;;;;6185792;23;20138;-80
2022/03/21 06:05:50;;;;;;;37.93;28.57;;;5.50;99.90;;;;;;6159906;23;20174;-83
2022/03/21 06:08:16;;;;;;;42.23;30.60;;;5.50;99.90;;;;;;6185627;23;20145;-79
2022/03/21 06:10:42;;;;;;;42.70;29.47;;;5.50;99.90;;;;;;6159596;23;20545;-80
2022/03/21 06:13:08;;;;;;;43.23;29.40;;;5.50;1.00;;;;;;6186062;23;20470;-78
2022/03/21 06:15:37;;;;;;;41.20;29.60;;;5.40;1.00;;;;;;6159758;23;20138;-82
2022/03/21 06:18:12;;;;;;;41.17;29.23;;;5.60;1.00;;;;;;6185965;23;20618;-81
2022/03/21 06:20:40;;;;;;;39.73;27.80;;;5.50;1.00;;;;;;6185747;23;20499;-83
2022/03/21 06:23:06;;;;;;;44.03;29.93;;;5.50;99.90;;;;;;6186189;23;20165;-83
2022/03/21 06:25:32;;;;;;;38.13;28.50;;;5.50;99.90;;;;;;6186090;23;20574;-79
2022/03/21 06:27:58;;;;;;;40.67;28.27;;;5.50;99.90;;;;;;6187389;23;20216;-80
2022/03/21 06:30:23;;;;;;;41.43;28.83;;;5.60;99.90;;;;;;6188246;23;20134;-84
2022/03/21 06:32:49;;;;;;;40.40;28.20;;;5.70;99.90;;;;;;6187813;23;20165;-78
2022/03/21 06:35:15;;;;;;;39.90;28.73;;;5.70;99.90;;;;;;6187838;23;20142;-81
2022/03/21 06:37:42;;;;;;;42.43;28.40;;;5.80;99.90;;;;;;6187497;23;20164;-82
2022/03/21 06:40:09;;;;;;;41.77;29.80;;;5.90;99.90;;;;;;6160931;23;20146;-81
2022/03/21 06:42:35;;;;;;;38.37;27.93;;;6.00;99.90;;;;;;6187371;23;20141;-81
2022/03/21 06:45:03;;;;;;;41.30;29.30;;;6.20;19.90;;;;;;6161434;23;20142;-84
2022/03/21 06:47:29;;;;;;;44.27;30.03;;;6.40;1.00;;;;;;6160960;23;20479;-81
2022/03/21 06:49:54;;;;;;;37.43;30.17;;;6.50;1.00;;;;;;6161746;23;20229;-80
2022/03/21 06:52:20;;;;;;;39.30;29.10;;;6.60;99.90;;;;;;6187869;23;20594;-84
2022/03/21 06:54:46;;;;;;;40.77;28.20;;;6.60;1.00;;;;;;6187680;23;20150;-78
2022/03/21 06:57:12;;;;;;;37.53;26.97;;;6.50;99.90;;;;;;6187405;23;20141;-81
2022/03/21 06:59:38;;;;;;;38.27;29.43;;;6.40;1.00;;;;;;6188015;23;20610;-80
2022/03/21 07:02:05;;;;;;;41.97;30.27;;;6.50;59.20;;;;;;6162215;23;20153;-81
2022/03/21 07:04:31;;;;;;;36.73;28.57;;;6.60;1.00;;;;;;6188812;23;20165;-84
2022/03/21 07:06:57;;;;;;;42.40;29.00;;;6.80;1.00;;;;;;6161238;23;20146;-84
2022/03/21 07:09:24;;;;;;;42.47;28.87;;;6.90;99.90;;;;;;6188025;23;20217;-83
2022/03/21 07:11:52;;;;;;;40.63;29.13;;;7.00;99.90;;;;;;6187723;23;20479;-83
2022/03/21 07:14:18;;;;;;;43.37;28.40;;;7.10;48.50;;;;;;6159455;23;20154;-82
2022/03/21 07:16:44;;;;;;;39.40;28.63;;;7.30;1.00;;;;;;6187889;23;20142;-80
2022/03/21 07:19:10;;;;;;;40.57;27.30;;;7.30;99.90;;;;;;6187749;23;20508;-85
2022/03/21 07:21:36;;;;;;;39.50;28.37;;;7.50;1.00;;;;;;6187200;23;20575;-83
2022/03/21 07:24:02;;;;;;;44.57;29.00;;;7.60;1.00;;;;;;6192043;23;20575;-79
2022/03/21 07:26:28;;;;;;;43.03;28.07;;;7.60;99.90;;;;;;6209395;23;20129;-79
2022/03/21 07:28:54;;;;;;;46.23;29.37;;;7.90;99.90;;;;;;6195454;23;20148;-82
2022/03/21 07:31:20;;;;;;;46.10;30.07;;;7.90;99.90;;;;;;6191601;23;20135;-79
2022/03/21 07:33:45;;;;;;;43.23;28.43;;;8.00;99.90;;;;;;6196399;23;20141;-81
2022/03/21 07:36:11;;;;;;;45.60;27.37;;;8.00;1.00;;;;;;6196631;23;20567;-80
2022/03/21 07:38:38;;;;;;;38.50;27.07;;;8.10;1.00;;;;;;6189424;23;20169;-84
2022/03/21 07:41:07;;;;;;;36.30;23.73;;;8.30;1.00;;;;;;6194824;23;20153;-79
2022/03/21 07:43:34;;;;;;;47.90;28.70;;;8.60;99.90;;;;;;6207209;23;20145;-80
2022/03/21 07:48:44;;;;;;;36.37;21.87;;;8.70;99.90;;;;;;6188296;23;20198;-77
2022/03/21 07:51:10;;;;;;;31.93;22.37;;;8.90;91.70;;;;;;6187292;23;20134;-84
2022/03/21 07:53:36;;;;;;;35.57;22.57;;;9.00;1.00;;;;;;6187532;23;20153;-79
2022/03/21 07:56:02;;;;;;;26.87;19.03;;;9.20;99.90;;;;;;6187234;23;20149;-79
2022/03/21 07:58:28;;;;;;;24.60;19.47;;;9.40;1.00;;;;;;6186586;23;20224;-83
2022/03/21 08:00:56;;;;;;;29.20;19.00;;;9.60;1.00;;;;;;6160438;23;20160;-80
2022/03/21 08:03:22;;;;;;;28.83;18.57;;;9.80;1.00;;;;;;6187207;23;20196;-81
2022/03/21 08:05:47;;;;;;;30.57;20.93;;;10.10;99.90;;;;;;6190614;23;20188;-82
2022/03/21 08:08:14;;;;;;;28.43;17.10;;;10.30;1.00;;;;;;6194200;23;20142;-79
2022/03/21 08:10:39;;;;;;;24.97;17.03;;;10.60;1.00;;;;;;6160427;23;20625;-80
2022/03/21 08:13:05;;;;;;;27.97;17.87;;;10.50;1.00;;;;;;6187085;23;20213;-82
2022/03/21 08:15:35;;;;;;;28.73;16.87;;;10.70;1.00;;;;;;6186494;23;20142;-81
2022/03/21 08:18:05;;;;;;;24.43;18.50;;;11.10;1.00;;;;;;6186094;23;20129;-78
2022/03/21 08:20:38;;;;;;;30.20;18.67;;;11.20;99.90;;;;;;6186700;23;20134;-84
2022/03/21 08:23:08;;;;;;;24.60;16.30;;;11.50;99.90;;;;;;6186927;23;20181;-78
2022/03/21 08:25:35;;;;;;;21.53;16.23;;;11.70;99.90;;;;;;6187258;23;20701;-81
2022/03/21 08:28:01;;;;;;;19.60;15.97;;;11.90;99.90;;;;;;6160674;23;20208;-78
2022/03/21 08:30:32;;;;;;;21.83;14.87;;;12.10;99.90;;;;;;6187954;23;20622;-84
2022/03/21 08:32:58;;;;;;;20.30;15.37;;;12.20;99.90;;;;;;6162729;23;20645;-80
2022/03/21 08:35:24;;;;;;;20.53;15.50;;;12.40;93.60;;;;;;6203686;23;20137;-81
2022/03/21 08:37:50;;;;;;;22.07;15.63;;;12.50;48.70;;;;;;6198953;23;20142;-81
2022/03/21 08:40:16;;;;;;;23.80;15.57;;;12.70;19.60;;;;;;6199763;23;20154;-78
2022/03/21 08:42:42;;;;;;;23.60;16.97;;;12.80;1.00;;;;;;6189499;23;20566;-82
2022/03/21 08:45:09;;;;;;;25.67;17.40;;;12.80;1.00;;;;;;6188280;23;20648;-79
2022/03/21 08:47:35;;;;;;;27.13;18.53;;;12.90;93.90;;;;;;6163422;23;20158;-78
2022/03/21 08:50:03;;;;;;;29.87;18.27;;;13.00;1.00;;;;;;6188103;23;20139;-82
2022/03/21 08:52:29;;;;;;;20.47;16.07;;;13.10;1.00;;;;;;6189329;23;20189;-83
2022/03/21 08:54:58;;;;;;;27.00;18.57;;;13.30;1.00;;;;;;6165708;23;20233;-81
2022/03/21 08:57:24;;;;;;;26.47;18.93;;;13.40;1.00;;;;;;6190538;23;20135;-78
2022/03/21 08:59:52;;;;;;;26.57;18.30;;;13.50;1.00;;;;;;6187045;23;20231;-84
2022/03/21 09:02:18;;;;;;;25.07;17.87;;;13.50;1.00;;;;;;6186503;23;20134;-82
2022/03/21 09:04:45;;;;;;;24.23;17.20;;;13.60;1.00;;;;;;6187331;23;20165;-82
2022/03/21 09:07:13;;;;;;;25.10;17.67;;;13.70;1.00;;;;;;6186958;23;20503;-82
2022/03/21 09:09:39;;;;;;;24.23;17.10;;;13.70;1.00;;;;;;6186936;23;20161;-83
2022/03/21 09:12:05;;;;;;;21.63;16.57;;;13.90;1.00;;;;;;6186582;23;20173;-81
2022/03/21 09:14:31;;;;;;;21.93;16.57;;;13.70;1.00;;;;;;6186300;23;20196;-79
2022/03/21 09:16:57;;;;;;;20.53;15.87;;;14.00;1.00;;;;;;6187317;23;20144;-82
2022/03/21 09:19:23;;;;;;;17.50;14.77;;;14.00;1.00;;;;;;6186973;23;20176;-82
2022/03/21 09:21:50;;;;;;;21.50;15.57;;;13.90;1.00;;;;;;6186675;23;20139;-83
2022/03/21 09:24:16;;;;;;;21.70;16.40;;;13.90;1.00;;;;;;6159365;23;20146;-80
2022/03/21 09:26:42;;;;;;;20.30;16.70;;;14.10;1.00;;;;;;6185960;23;20202;-78
2022/03/21 09:29:09;;;;;;;20.27;16.03;;;14.20;1.00;;;;;;6187058;23;20146;-80
2022/03/21 09:31:39;;;;;;;22.23;15.37;;;14.20;1.00;;;;;;6187118;23;20158;-82
2022/03/21 09:34:06;;;;;;;20.07;14.90;;;14.10;1.00;;;;;;6186176;23;20476;-83
2022/03/21 09:36:31;;;;;;;19.23;15.83;;;14.20;1.00;;;;;;6186772;23;20152;-83
2022/03/21 09:38:57;;;;;;;19.00;16.07;;;14.10;1.00;;;;;;6187483;23;20627;-80
2022/03/21 09:41:25;;;;;;;21.73;15.67;;;14.10;1.00;;;;;;6188376;23;20164;-82
2022/03/21 09:44:03;;;;;;;19.67;16.73;;;14.20;1.00;;;;;;6202919;23;20137;-82
2022/03/21 09:46:30;;;;;;;18.23;15.40;;;14.40;1.00;;;;;;6181545;23;20204;-79
2022/03/21 09:48:57;;;;;;;23.13;16.73;;;14.70;1.00;;;;;;6201347;23;20145;-84
2022/03/21 09:51:27;;;;;;;21.23;15.33;;;14.80;1.00;;;;;;6161550;23;20230;-83
2022/03/21 09:53:54;;;;;;;22.90;15.70;;;14.70;1.00;;;;;;6188709;23;20171;-83
2022/03/21 09:56:20;;;;;;;19.47;15.93;;;14.60;1.00;;;;;;6159773;23;20145;-84
2022/03/21 09:58:46;;;;;;;22.20;16.10;;;14.70;1.00;;;;;;6189885;23;20176;-84
2022/03/21 10:01:12;;;;;;;22.40;14.33;;;14.70;1.00;;;;;;6207996;23;20488;-83
2022/03/21 10:03:39;;;;;;;20.27;15.80;;;14.80;1.00;;;;;;6203394;23;20185;-80
2022/03/21 10:06:34;;;;;;;22.10;16.80;;;15.10;1.00;;;;;;6193948;23;20154;-83
2022/03/21 10:09:20;;;;;;;25.97;16.40;;;15.20;1.00;;;;;;6187416;23;20180;-83
2022/03/21 10:11:53;;;;;;;17.20;15.17;;;15.30;1.00;;;;;;6159675;23;20248;-84
2022/03/21 10:14:24;;;;;;;19.63;15.97;;;15.50;1.00;;;;;;6186081;23;20146;-84
2022/03/21 10:17:03;;;;;;;21.57;17.90;;;15.60;1.00;;;;;;6159691;23;20164;-83
2022/03/21 10:19:44;;;;;;;21.73;16.23;;;15.80;1.00;;;;;;6186885;23;20184;-82
2022/03/21 10:22:19;;;;;;;21.63;17.67;;;15.80;1.00;;;;;;6187213;23;20619;-82
2022/03/21 10:24:47;;;;;;;23.47;17.33;;;15.90;1.00;;;;;;6160709;23;20189;-84
2022/03/21 10:27:40;;;;;;;21.13;16.93;;;15.80;1.00;;;;;;6187399;23;20571;-84
2022/03/21 10:30:13;;;;;;;19.40;15.43;;;15.90;1.00;;;;;;6186992;23;20134;-83
2022/03/21 10:32:51;;;;;;;19.13;15.03;;;16.00;1.00;;;;;;6187075;23;20134;-84
2022/03/21 10:35:22;;;;;;;18.93;15.30;;;16.20;1.00;;;;;;6187372;23;20613;-84
2022/03/21 10:37:53;;;;;;;19.03;15.30;;;16.20;1.00;;;;;;6187270;23;20172;-84
2022/03/21 10:40:48;;;;;;;18.50;14.73;;;16.20;1.00;;;;;;6187157;23;20519;-84
2022/03/21 10:43:15;;;;;;;19.07;15.37;;;16.30;1.00;;;;;;6182392;23;20549;-83
2022/03/21 10:45:46;;;;;;;21.07;15.37;;;16.20;1.00;;;;;;6192561;23;20226;-81
2022/03/21 10:48:40;;;;;;;20.90;14.50;;;16.30;1.00;;;;;;6195648;23;20483;-83
2022/03/21 10:51:07;;;;;;;19.20;13.73;;;16.40;1.00;;;;;;6183568;23;20248;-83
2022/03/21 10:53:41;;;;;;;19.30;14.30;;;16.60;1.00;;;;;;6186172;23;20204;-84
2022/03/21 10:56:09;;;;;;;18.60;15.10;;;16.90;1.00;;;;;;6160400;23;20594;-81
2022/03/21 10:58:36;;;;;;;16.70;14.47;;;17.20;1.00;;;;;;6160440;23;20217;-81
2022/03/21 11:01:16;;;;;;;19.10;15.20;;;17.30;1.00;;;;;;6187192;23;20143;-84
2022/03/21 11:03:44;;;;;;;19.93;14.47;;;17.30;1.00;;;;;;6190593;23;20137;-83
2022/03/21 11:06:12;;;;;;;18.03;13.87;;;17.50;1.00;;;;;;6189138;23;20243;-79
2022/03/21 11:08:39;;;;;;;19.80;14.07;;;17.60;1.00;;;;;;6187467;23;20167;-78
2022/03/21 11:11:07;;;;;;;17.53;13.30;;;17.50;1.00;;;;;;6186760;23;20260;-83
2022/03/21 11:13:33;;;;;;;19.90;13.53;;;17.50;1.00;;;;;;6186383;23;20165;-84
2022/03/21 11:15:59;;;;;;;20.17;13.53;;;17.50;1.00;;;;;;6162550;23;20141;-79
2022/03/21 11:18:27;;;;;;;17.43;13.10;;;17.60;1.00;;;;;;6188606;23;20616;-84
2022/03/21 11:20:53;;;;;;;20.10;13.33;;;17.50;1.00;;;;;;6161941;23;20242;-82
2022/03/21 11:23:19;;;;;;;19.87;14.13;;;17.80;1.00;;;;;;6162747;23;20635;-86
2022/03/21 11:25:50;;;;;;;21.90;15.77;;;17.70;1.00;;;;;;6190552;23;20139;-83
2022/03/21 11:28:53;;;;;;;18.93;12.90;;;17.70;1.00;;;;;;6189361;23;20145;-82
2022/03/21 11:31:51;;;;;;;17.53;13.67;;;17.90;1.00;;;;;;6162871;23;20658;-82
2022/03/21 11:34:37;;;;;;;19.53;12.47;;;17.90;1.00;;;;;;6188351;23;20148;-81
2022/03/21 11:37:02;;;;;;;16.13;12.23;;;18.00;1.00;;;;;;6162526;23;20153;-83
2022/03/21 11:39:30;;;;;;;16.80;12.00;;;18.10;1.00;;;;;;6159246;23;20695;-81
2022/03/21 11:42:02;;;;;;;15.67;12.37;;;18.00;1.00;;;;;;6187725;23;20180;-83
2022/03/21 11:44:28;;;;;;;15.60;12.40;;;18.10;1.00;;;;;;6189240;23;20153;-83
2022/03/21 11:47:13;;;;;;;18.20;13.13;;;18.20;1.00;;;;;;6186023;23;20197;-84
2022/03/21 11:49:39;;;;;;;19.87;12.97;;;18.30;1.00;;;;;;6193284;23;20193;-83
2022/03/21 11:52:05;;;;;;;17.40;12.20;;;18.60;1.00;;;;;;6194778;23;20149;-77
2022/03/21 11:54:37;;;;;;;13.30;11.40;;;18.50;1.00;;;;;;6197385;23;20145;-82
2022/03/21 11:57:16;;;;;;;20.30;12.37;;;18.70;1.00;;;;;;6162835;23;20152;-80
2022/03/21 11:59:41;;;;;;;16.77;12.60;;;18.70;1.00;;;;;;6200893;23;20264;-83
2022/03/21 12:02:17;;;;;;;15.87;12.43;;;18.70;1.00;;;;;;6197708;23;20146;-85
2022/03/21 12:04:56;;;;;;;14.17;12.27;;;18.90;1.00;;;;;;6161517;23;20174;-78
2022/03/21 12:07:31;;;;;;;17.53;11.63;;;19.00;1.00;;;;;;6183583;23;20158;-83
2022/03/21 12:09:57;;;;;;;16.40;12.60;;;19.20;1.00;;;;;;6186810;23;20193;-83
2022/03/21 12:12:51;;;;;;;15.87;12.80;;;19.20;1.00;;;;;;6188295;23;20168;-82
2022/03/21 12:15:29;;;;;;;16.20;11.43;;;19.20;1.00;;;;;;6195959;23;20146;-81
2022/03/21 12:17:55;;;;;;;17.10;12.60;;;19.30;1.00;;;;;;6210256;23;20189;-82
2022/03/21 12:20:23;;;;;;;15.67;11.97;;;19.40;1.00;;;;;;6194587;23;20147;-85
2022/03/21 12:23:00;;;;;;;17.10;11.80;;;19.40;1.00;;;;;;6189283;23;20147;-86
2022/03/21 12:25:32;;;;;;;17.83;11.73;;;19.30;1.00;;;;;;6187780;23;20216;-85
2022/03/21 12:28:17;;;;;;;17.13;11.10;;;19.40;1.00;;;;;;6186732;23;20141;-87
2022/03/21 12:30:48;;;;;;;14.87;10.77;;;19.50;1.00;;;;;;6186587;23;20143;-85
2022/03/21 12:33:16;;;;;;;17.03;11.30;;;19.60;1.00;;;;;;6187716;23;20175;-88
2022/03/21 12:35:45;;;;;;;16.70;11.23;;;19.70;1.00;;;;;;6186076;23;20166;-81
2022/03/21 12:38:23;;;;;;;16.70;11.57;;;19.90;1.00;;;;;;6185478;23;20579;-82
2022/03/21 12:40:50;;;;;;;16.13;11.40;;;19.80;1.00;;;;;;6182738;23;20138;-84
2022/03/21 12:43:29;;;;;;;17.53;12.63;;;20.10;1.00;;;;;;6188458;23;20173;-85
2022/03/21 12:46:08;;;;;;;20.20;11.87;;;20.20;99.90;;;;;;6160704;23;20152;-85
2022/03/21 12:48:37;;;;;;;15.07;11.27;;;20.20;99.90;;;;;;6164076;23;20148;-86
2022/03/21 12:51:05;;;;;;;17.03;11.67;;;20.20;99.90;;;;;;6160882;23;20165;-86
2022/03/21 12:53:45;;;;;;;14.13;11.07;;;20.10;99.90;;;;;;6187116;23;20214;-85
2022/03/21 12:56:13;;;;;;;19.37;11.90;;;20.00;99.90;;;;;;6185541;23;20140;-83
2022/03/21 12:58:45;;;;;;;18.13;11.83;;;20.10;99.90;;;;;;6185617;23;20573;-83
2022/03/21 13:01:11;;;;;;;13.87;10.90;;;20.10;99.90;;;;;;6186985;23;20195;-85
2022/03/21 13:03:37;;;;;;;13.80;11.57;;;20.30;99.90;;;;;;6162194;23;20610;-87